sensor_id;sensor_type;location;lat;lon;timestamp;P1;durP1;ratioP1;P2;durP2;ratioP2
60454;SDS011;54989;53.398;6.564;2022-10-16T00:01:36;0.90;;;0.77;;
60454;SDS011;54989;53.398;6.564;2022-10-16T00:04:04;1.42;;;0.85;;
60454;SDS011;54989;53.398;6.564;2022-10-16T00:06:32;1.25;;;0.80;;
60454;SDS011;54989;53.398;6.564;2022-10-16T00:08:59;1.02;;;0.80;;
60454;SDS011;54989;53.398;6.564;2022-10-16T00:11:28;1.42;;;0.88;;
60454;SDS011;54989;53.398;6.564;2022-10-16T00:14:00;1.00;;;0.90;;
60454;SDS011;54989;53.398;6.564;2022-10-16T00:16:29;0.85;;;0.85;;
60454;SDS011;54989;53.398;6.564;2022-10-16T00:18:56;1.05;;;0.95;;
60454;SDS011;54989;53.398;6.564;2022-10-16T00:21:25;1.13;;;0.82;;
60454;SDS011;54989;53.398;6.564;2022-10-16T00:23:58;0.88;;;0.88;;
60454;SDS011;54989;53.398;6.564;2022-10-16T00:26:28;0.82;;;0.70;;
60454;SDS011;54989;53.398;6.564;2022-10-16T00:28:57;0.60;;;0.60;;
60454;SDS011;54989;53.398;6.564;2022-10-16T00:31:24;1.20;;;0.80;;
60454;SDS011;54989;53.398;6.564;2022-10-16T00:33:52;1.50;;;0.90;;
60454;SDS011;54989;53.398;6.564;2022-10-16T00:36:21;0.90;;;0.70;;
60454;SDS011;54989;53.398;6.564;2022-10-16T00:38:51;1.27;;;0.60;;
60454;SDS011;54989;53.398;6.564;2022-10-16T00:41:24;2.15;;;0.77;;
60454;SDS011;54989;53.398;6.564;2022-10-16T00:43:58;0.80;;;0.77;;
60454;SDS011;54989;53.398;6.564;2022-10-16T00:46:38;0.95;;;0.80;;
60454;SDS011;54989;53.398;6.564;2022-10-16T00:49:16;1.05;;;0.80;;
60454;SDS011;54989;53.398;6.564;2022-10-16T00:51:48;0.85;;;0.50;;
60454;SDS011;54989;53.398;6.564;2022-10-16T00:56:47;1.00;;;1.00;;
60454;SDS011;54989;53.398;6.564;2022-10-16T00:59:19;1.00;;;0.70;;
60454;SDS011;54989;53.398;6.564;2022-10-16T01:01:53;1.33;;;0.88;;
60454;SDS011;54989;53.398;6.564;2022-10-16T01:04:21;0.70;;;0.70;;
60454;SDS011;54989;53.398;6.564;2022-10-16T01:07:09;1.17;;;0.90;;
60454;SDS011;54989;53.398;6.564;2022-10-16T01:12:41;0.73;;;0.73;;
60454;SDS011;54989;53.398;6.564;2022-10-16T01:15:30;5.50;;;1.02;;
60454;SDS011;54989;53.398;6.564;2022-10-16T01:20:59;0.98;;;0.60;;
60454;SDS011;54989;53.398;6.564;2022-10-16T01:31:50;0.80;;;0.70;;
60454;SDS011;54989;53.398;6.564;2022-10-16T01:34:30;1.85;;;0.80;;
60454;SDS011;54989;53.398;6.564;2022-10-16T01:37:02;1.20;;;0.63;;
60454;SDS011;54989;53.398;6.564;2022-10-16T01:39:39;0.85;;;0.82;;
60454;SDS011;54989;53.398;6.564;2022-10-16T01:42:12;0.98;;;0.90;;
60454;SDS011;54989;53.398;6.564;2022-10-16T01:44:44;0.70;;;0.70;;
60454;SDS011;54989;53.398;6.564;2022-10-16T01:47:14;0.57;;;0.52;;
60454;SDS011;54989;53.398;6.564;2022-10-16T01:49:43;0.80;;;0.80;;
60454;SDS011;54989;53.398;6.564;2022-10-16T01:52:14;1.15;;;0.80;;
60454;SDS011;54989;53.398;6.564;2022-10-16T01:54:46;0.95;;;0.85;;
60454;SDS011;54989;53.398;6.564;2022-10-16T01:57:16;1.05;;;0.77;;
60454;SDS011;54989;53.398;6.564;2022-10-16T01:59:49;1.55;;;1.10;;
60454;SDS011;54989;53.398;6.564;2022-10-16T02:02:19;0.95;;;0.70;;
60454;SDS011;54989;53.398;6.564;2022-10-16T02:04:49;1.42;;;0.88;;
60454;SDS011;54989;53.398;6.564;2022-10-16T02:07:24;0.88;;;0.80;;
60454;SDS011;54989;53.398;6.564;2022-10-16T02:09:51;0.68;;;0.68;;
60454;SDS011;54989;53.398;6.564;2022-10-16T02:12:22;0.90;;;0.80;;
60454;SDS011;54989;53.398;6.564;2022-10-16T02:14:56;1.13;;;0.90;;
60454;SDS011;54989;53.398;6.564;2022-10-16T02:17:24;0.80;;;0.60;;
60454;SDS011;54989;53.398;6.564;2022-10-16T02:19:52;1.13;;;0.68;;
60454;SDS011;54989;53.398;6.564;2022-10-16T02:22:42;0.95;;;0.80;;
60454;SDS011;54989;53.398;6.564;2022-10-16T02:28:03;0.70;;;0.70;;
60454;SDS011;54989;53.398;6.564;2022-10-16T02:30:42;1.00;;;0.70;;
60454;SDS011;54989;53.398;6.564;2022-10-16T02:33:21;2.22;;;0.90;;
60454;SDS011;54989;53.398;6.564;2022-10-16T02:35:51;0.80;;;0.80;;
60454;SDS011;54989;53.398;6.564;2022-10-16T02:38:20;0.82;;;0.80;;
60454;SDS011;54989;53.398;6.564;2022-10-16T02:40:48;1.52;;;0.90;;
60454;SDS011;54989;53.398;6.564;2022-10-16T02:43:16;0.70;;;0.70;;
60454;SDS011;54989;53.398;6.564;2022-10-16T02:45:45;0.98;;;0.70;;
60454;SDS011;54989;53.398;6.564;2022-10-16T02:48:12;0.80;;;0.80;;
60454;SDS011;54989;53.398;6.564;2022-10-16T02:50:40;1.00;;;0.77;;
60454;SDS011;54989;53.398;6.564;2022-10-16T02:53:07;0.90;;;0.80;;
60454;SDS011;54989;53.398;6.564;2022-10-16T02:55:35;0.95;;;0.70;;
60454;SDS011;54989;53.398;6.564;2022-10-16T02:58:02;0.75;;;0.63;;
60454;SDS011;54989;53.398;6.564;2022-10-16T03:00:30;0.60;;;0.60;;
60454;SDS011;54989;53.398;6.564;2022-10-16T03:02:57;1.05;;;0.70;;
60454;SDS011;54989;53.398;6.564;2022-10-16T03:05:24;0.75;;;0.75;;
60454;SDS011;54989;53.398;6.564;2022-10-16T03:07:52;0.77;;;0.68;;
60454;SDS011;54989;53.398;6.564;2022-10-16T03:10:19;1.02;;;0.90;;
60454;SDS011;54989;53.398;6.564;2022-10-16T03:12:47;0.52;;;0.52;;
60454;SDS011;54989;53.398;6.564;2022-10-16T03:15:14;0.60;;;0.60;;
60454;SDS011;54989;53.398;6.564;2022-10-16T03:17:42;0.57;;;0.57;;
60454;SDS011;54989;53.398;6.564;2022-10-16T03:20:09;1.08;;;0.90;;
60454;SDS011;54989;53.398;6.564;2022-10-16T03:22:37;1.20;;;0.70;;
60454;SDS011;54989;53.398;6.564;2022-10-16T03:25:05;1.33;;;0.70;;
60454;SDS011;54989;53.398;6.564;2022-10-16T03:27:33;1.38;;;0.68;;
60454;SDS011;54989;53.398;6.564;2022-10-16T03:30:00;0.90;;;0.70;;
60454;SDS011;54989;53.398;6.564;2022-10-16T03:32:27;1.17;;;0.60;;
60454;SDS011;54989;53.398;6.564;2022-10-16T03:34:55;0.70;;;0.70;;
60454;SDS011;54989;53.398;6.564;2022-10-16T03:37:23;1.05;;;0.90;;
60454;SDS011;54989;53.398;6.564;2022-10-16T03:39:51;0.90;;;0.70;;
60454;SDS011;54989;53.398;6.564;2022-10-16T03:42:19;0.68;;;0.68;;
60454;SDS011;54989;53.398;6.564;2022-10-16T03:44:46;0.95;;;0.75;;
60454;SDS011;54989;53.398;6.564;2022-10-16T03:47:14;0.70;;;0.70;;
60454;SDS011;54989;53.398;6.564;2022-10-16T03:49:41;0.70;;;0.70;;
60454;SDS011;54989;53.398;6.564;2022-10-16T03:52:09;0.60;;;0.60;;
60454;SDS011;54989;53.398;6.564;2022-10-16T03:54:36;0.50;;;0.50;;
60454;SDS011;54989;53.398;6.564;2022-10-16T03:57:04;0.50;;;0.50;;
60454;SDS011;54989;53.398;6.564;2022-10-16T03:59:31;1.48;;;0.60;;
60454;SDS011;54989;53.398;6.564;2022-10-16T04:01:59;0.80;;;0.80;;
60454;SDS011;54989;53.398;6.564;2022-10-16T04:04:26;0.70;;;0.70;;
60454;SDS011;54989;53.398;6.564;2022-10-16T04:06:53;0.57;;;0.57;;
60454;SDS011;54989;53.398;6.564;2022-10-16T04:09:21;0.63;;;0.63;;
60454;SDS011;54989;53.398;6.564;2022-10-16T04:11:48;0.88;;;0.80;;
60454;SDS011;54989;53.398;6.564;2022-10-16T04:14:16;0.90;;;0.75;;
60454;SDS011;54989;53.398;6.564;2022-10-16T04:16:43;0.95;;;0.82;;
60454;SDS011;54989;53.398;6.564;2022-10-16T04:19:11;0.70;;;0.70;;
60454;SDS011;54989;53.398;6.564;2022-10-16T04:21:38;0.63;;;0.50;;
60454;SDS011;54989;53.398;6.564;2022-10-16T04:24:06;0.63;;;0.60;;
60454;SDS011;54989;53.398;6.564;2022-10-16T04:26:33;0.65;;;0.65;;
60454;SDS011;54989;53.398;6.564;2022-10-16T04:29:01;0.98;;;0.55;;
60454;SDS011;54989;53.398;6.564;2022-10-16T04:31:28;0.50;;;0.50;;
60454;SDS011;54989;53.398;6.564;2022-10-16T04:33:56;1.13;;;0.60;;
60454;SDS011;54989;53.398;6.564;2022-10-16T04:36:23;1.20;;;0.80;;
60454;SDS011;54989;53.398;6.564;2022-10-16T04:38:54;1.40;;;0.73;;
60454;SDS011;54989;53.398;6.564;2022-10-16T04:41:22;1.05;;;0.88;;
60454;SDS011;54989;53.398;6.564;2022-10-16T04:43:49;0.70;;;0.70;;
60454;SDS011;54989;53.398;6.564;2022-10-16T04:46:17;0.80;;;0.80;;
60454;SDS011;54989;53.398;6.564;2022-10-16T04:48:44;0.70;;;0.70;;
60454;SDS011;54989;53.398;6.564;2022-10-16T04:51:13;0.75;;;0.73;;
60454;SDS011;54989;53.398;6.564;2022-10-16T04:53:40;0.70;;;0.70;;
60454;SDS011;54989;53.398;6.564;2022-10-16T04:56:08;0.60;;;0.60;;
60454;SDS011;54989;53.398;6.564;2022-10-16T04:58:35;0.73;;;0.65;;
60454;SDS011;54989;53.398;6.564;2022-10-16T05:01:03;0.68;;;0.68;;
60454;SDS011;54989;53.398;6.564;2022-10-16T05:03:30;0.47;;;0.47;;
60454;SDS011;54989;53.398;6.564;2022-10-16T05:05:58;0.82;;;0.80;;
60454;SDS011;54989;53.398;6.564;2022-10-16T05:08:25;0.88;;;0.85;;
60454;SDS011;54989;53.398;6.564;2022-10-16T05:10:52;0.70;;;0.70;;
60454;SDS011;54989;53.398;6.564;2022-10-16T05:13:20;1.55;;;1.00;;
60454;SDS011;54989;53.398;6.564;2022-10-16T05:15:47;1.08;;;0.98;;
60454;SDS011;54989;53.398;6.564;2022-10-16T05:18:16;0.60;;;0.60;;
60454;SDS011;54989;53.398;6.564;2022-10-16T05:20:43;0.80;;;0.80;;
60454;SDS011;54989;53.398;6.564;2022-10-16T05:23:11;0.60;;;0.60;;
60454;SDS011;54989;53.398;6.564;2022-10-16T05:25:51;1.25;;;0.75;;
60454;SDS011;54989;53.398;6.564;2022-10-16T05:28:20;0.80;;;0.77;;
60454;SDS011;54989;53.398;6.564;2022-10-16T05:30:48;1.15;;;0.85;;
60454;SDS011;54989;53.398;6.564;2022-10-16T05:33:16;0.60;;;0.60;;
60454;SDS011;54989;53.398;6.564;2022-10-16T05:35:43;1.13;;;0.70;;
60454;SDS011;54989;53.398;6.564;2022-10-16T05:38:11;0.60;;;0.60;;
60454;SDS011;54989;53.398;6.564;2022-10-16T05:40:39;0.77;;;0.70;;
60454;SDS011;54989;53.398;6.564;2022-10-16T05:43:06;0.77;;;0.60;;
60454;SDS011;54989;53.398;6.564;2022-10-16T05:45:34;0.65;;;0.60;;
60454;SDS011;54989;53.398;6.564;2022-10-16T05:48:01;0.70;;;0.70;;
60454;SDS011;54989;53.398;6.564;2022-10-16T05:50:28;0.70;;;0.70;;
60454;SDS011;54989;53.398;6.564;2022-10-16T05:52:57;1.08;;;0.73;;
60454;SDS011;54989;53.398;6.564;2022-10-16T05:55:24;0.80;;;0.80;;
60454;SDS011;54989;53.398;6.564;2022-10-16T05:57:54;0.85;;;0.60;;
60454;SDS011;54989;53.398;6.564;2022-10-16T06:00:21;0.80;;;0.80;;
60454;SDS011;54989;53.398;6.564;2022-10-16T06:02:49;0.82;;;0.82;;
60454;SDS011;54989;53.398;6.564;2022-10-16T06:05:16;0.90;;;0.80;;
60454;SDS011;54989;53.398;6.564;2022-10-16T06:07:43;1.02;;;0.80;;
60454;SDS011;54989;53.398;6.564;2022-10-16T06:10:11;1.88;;;1.15;;
60454;SDS011;54989;53.398;6.564;2022-10-16T06:12:38;0.60;;;0.60;;
60454;SDS011;54989;53.398;6.564;2022-10-16T06:15:06;0.60;;;0.60;;
60454;SDS011;54989;53.398;6.564;2022-10-16T06:17:34;0.85;;;0.70;;
60454;SDS011;54989;53.398;6.564;2022-10-16T06:20:01;0.82;;;0.80;;
60454;SDS011;54989;53.398;6.564;2022-10-16T06:22:28;0.80;;;0.80;;
60454;SDS011;54989;53.398;6.564;2022-10-16T06:24:56;0.75;;;0.65;;
60454;SDS011;54989;53.398;6.564;2022-10-16T06:27:23;1.27;;;0.90;;
60454;SDS011;54989;53.398;6.564;2022-10-16T06:29:51;0.70;;;0.60;;
60454;SDS011;54989;53.398;6.564;2022-10-16T06:32:19;0.70;;;0.70;;
60454;SDS011;54989;53.398;6.564;2022-10-16T06:34:47;1.20;;;0.80;;
60454;SDS011;54989;53.398;6.564;2022-10-16T06:37:19;0.55;;;0.55;;
60454;SDS011;54989;53.398;6.564;2022-10-16T06:39:49;0.95;;;0.75;;
60454;SDS011;54989;53.398;6.564;2022-10-16T06:42:16;1.98;;;1.35;;
60454;SDS011;54989;53.398;6.564;2022-10-16T06:44:44;0.90;;;0.90;;
60454;SDS011;54989;53.398;6.564;2022-10-16T06:47:11;0.80;;;0.80;;
60454;SDS011;54989;53.398;6.564;2022-10-16T06:49:39;1.27;;;0.50;;
60454;SDS011;54989;53.398;6.564;2022-10-16T06:52:07;0.90;;;0.75;;
60454;SDS011;54989;53.398;6.564;2022-10-16T06:54:34;2.25;;;0.90;;
60454;SDS011;54989;53.398;6.564;2022-10-16T06:57:07;0.88;;;0.63;;
60454;SDS011;54989;53.398;6.564;2022-10-16T06:59:35;0.80;;;0.80;;
60454;SDS011;54989;53.398;6.564;2022-10-16T07:02:02;0.70;;;0.65;;
60454;SDS011;54989;53.398;6.564;2022-10-16T07:04:31;1.08;;;0.90;;
60454;SDS011;54989;53.398;6.564;2022-10-16T07:07:02;1.70;;;0.70;;
60454;SDS011;54989;53.398;6.564;2022-10-16T07:09:36;1.15;;;0.95;;
60454;SDS011;54989;53.398;6.564;2022-10-16T07:12:03;0.73;;;0.73;;
60454;SDS011;54989;53.398;6.564;2022-10-16T07:14:39;1.85;;;1.00;;
60454;SDS011;54989;53.398;6.564;2022-10-16T07:17:06;1.13;;;0.98;;
60454;SDS011;54989;53.398;6.564;2022-10-16T07:19:35;1.48;;;0.80;;
60454;SDS011;54989;53.398;6.564;2022-10-16T07:22:03;0.82;;;0.82;;
60454;SDS011;54989;53.398;6.564;2022-10-16T07:24:34;0.90;;;0.90;;
60454;SDS011;54989;53.398;6.564;2022-10-16T07:27:06;0.70;;;0.70;;
60454;SDS011;54989;53.398;6.564;2022-10-16T07:29:33;2.58;;;1.52;;
60454;SDS011;54989;53.398;6.564;2022-10-16T07:32:01;4.15;;;3.85;;
60454;SDS011;54989;53.398;6.564;2022-10-16T07:34:29;4.10;;;3.80;;
60454;SDS011;54989;53.398;6.564;2022-10-16T07:36:56;4.30;;;3.90;;
60454;SDS011;54989;53.398;6.564;2022-10-16T07:39:23;4.68;;;3.67;;
60454;SDS011;54989;53.398;6.564;2022-10-16T07:41:52;3.60;;;3.30;;
60454;SDS011;54989;53.398;6.564;2022-10-16T07:44:19;3.40;;;3.10;;
60454;SDS011;54989;53.398;6.564;2022-10-16T07:46:47;3.47;;;3.17;;
60454;SDS011;54989;53.398;6.564;2022-10-16T07:49:14;3.25;;;3.00;;
60454;SDS011;54989;53.398;6.564;2022-10-16T07:51:41;3.13;;;2.83;;
60454;SDS011;54989;53.398;6.564;2022-10-16T07:54:09;2.70;;;2.50;;
60454;SDS011;54989;53.398;6.564;2022-10-16T07:56:37;4.15;;;2.70;;
60454;SDS011;54989;53.398;6.564;2022-10-16T07:59:09;3.65;;;2.50;;
60454;SDS011;54989;53.398;6.564;2022-10-16T08:01:37;2.72;;;2.50;;
60454;SDS011;54989;53.398;6.564;2022-10-16T08:04:05;3.13;;;2.20;;
60454;SDS011;54989;53.398;6.564;2022-10-16T08:06:35;2.20;;;2.10;;
60454;SDS011;54989;53.398;6.564;2022-10-16T08:09:06;2.35;;;2.20;;
60454;SDS011;54989;53.398;6.564;2022-10-16T08:11:34;2.22;;;1.98;;
60454;SDS011;54989;53.398;6.564;2022-10-16T08:14:02;2.17;;;2.03;;
60454;SDS011;54989;53.398;6.564;2022-10-16T08:16:29;2.30;;;2.10;;
60454;SDS011;54989;53.398;6.564;2022-10-16T08:18:57;3.25;;;1.90;;
60454;SDS011;54989;53.398;6.564;2022-10-16T08:21:24;2.25;;;1.92;;
60454;SDS011;54989;53.398;6.564;2022-10-16T08:23:53;2.00;;;1.80;;
60454;SDS011;54989;53.398;6.564;2022-10-16T08:26:24;2.28;;;2.08;;
60454;SDS011;54989;53.398;6.564;2022-10-16T08:28:53;1.92;;;1.80;;
60454;SDS011;54989;53.398;6.564;2022-10-16T08:31:21;3.75;;;1.88;;
60454;SDS011;54989;53.398;6.564;2022-10-16T08:33:49;3.30;;;1.75;;
60454;SDS011;54989;53.398;6.564;2022-10-16T08:36:17;11.95;;;3.88;;
60454;SDS011;54989;53.398;6.564;2022-10-16T08:38:47;5.25;;;1.77;;
60454;SDS011;54989;53.398;6.564;2022-10-16T08:41:19;2.50;;;1.58;;
60454;SDS011;54989;53.398;6.564;2022-10-16T08:43:59;4.15;;;1.80;;
60454;SDS011;54989;53.398;6.564;2022-10-16T08:46:56;1.70;;;1.60;;
60454;SDS011;54989;53.398;6.564;2022-10-16T08:49:50;2.83;;;1.70;;
60454;SDS011;54989;53.398;6.564;2022-10-16T08:52:32;1.55;;;1.38;;
60454;SDS011;54989;53.398;6.564;2022-10-16T08:55:02;2.00;;;1.60;;
60454;SDS011;54989;53.398;6.564;2022-10-16T08:57:31;1.98;;;1.48;;
60454;SDS011;54989;53.398;6.564;2022-10-16T09:00:00;1.58;;;1.48;;
60454;SDS011;54989;53.398;6.564;2022-10-16T09:02:40;2.65;;;1.48;;
60454;SDS011;54989;53.398;6.564;2022-10-16T09:05:17;1.85;;;1.20;;
60454;SDS011;54989;53.398;6.564;2022-10-16T09:10:28;2.30;;;1.30;;
60454;SDS011;54989;53.398;6.564;2022-10-16T09:13:27;3.47;;;1.33;;
60454;SDS011;54989;53.398;6.564;2022-10-16T09:16:19;1.10;;;1.00;;
60454;SDS011;54989;53.398;6.564;2022-10-16T09:21:46;1.70;;;1.20;;
60454;SDS011;54989;53.398;6.564;2022-10-16T09:26:43;1.90;;;1.10;;
60454;SDS011;54989;53.398;6.564;2022-10-16T09:29:19;1.20;;;1.10;;
60454;SDS011;54989;53.398;6.564;2022-10-16T09:31:48;1.65;;;1.50;;
60454;SDS011;54989;53.398;6.564;2022-10-16T09:37:03;1.52;;;1.00;;
60454;SDS011;54989;53.398;6.564;2022-10-16T09:39:48;1.75;;;0.98;;
60454;SDS011;54989;53.398;6.564;2022-10-16T09:42:18;1.67;;;1.10;;
60454;SDS011;54989;53.398;6.564;2022-10-16T09:44:48;1.00;;;0.93;;
60454;SDS011;54989;53.398;6.564;2022-10-16T09:47:19;1.80;;;1.10;;
60454;SDS011;54989;53.398;6.564;2022-10-16T09:49:51;2.67;;;1.48;;
60454;SDS011;54989;53.398;6.564;2022-10-16T09:52:20;1.67;;;1.15;;
60454;SDS011;54989;53.398;6.564;2022-10-16T09:54:55;1.27;;;1.00;;
60454;SDS011;54989;53.398;6.564;2022-10-16T09:57:23;1.15;;;1.00;;
60454;SDS011;54989;53.398;6.564;2022-10-16T09:59:55;2.25;;;1.27;;
60454;SDS011;54989;53.398;6.564;2022-10-16T10:05:17;2.30;;;1.20;;
60454;SDS011;54989;53.398;6.564;2022-10-16T10:07:54;3.33;;;1.30;;
60454;SDS011;54989;53.398;6.564;2022-10-16T10:10:27;2.03;;;1.00;;
60454;SDS011;54989;53.398;6.564;2022-10-16T10:12:56;3.22;;;1.30;;
60454;SDS011;54989;53.398;6.564;2022-10-16T10:15:24;1.88;;;1.17;;
60454;SDS011;54989;53.398;6.564;2022-10-16T10:17:55;1.70;;;1.00;;
60454;SDS011;54989;53.398;6.564;2022-10-16T10:20:31;2.05;;;1.10;;
60454;SDS011;54989;53.398;6.564;2022-10-16T10:23:13;2.47;;;1.38;;
60454;SDS011;54989;53.398;6.564;2022-10-16T10:25:49;2.88;;;1.20;;
60454;SDS011;54989;53.398;6.564;2022-10-16T10:31:12;2.85;;;1.25;;
60454;SDS011;54989;53.398;6.564;2022-10-16T10:33:57;2.28;;;1.08;;
60454;SDS011;54989;53.398;6.564;2022-10-16T10:41:55;1.58;;;1.20;;
60454;SDS011;54989;53.398;6.564;2022-10-16T10:47:55;4.68;;;1.52;;
60454;SDS011;54989;53.398;6.564;2022-10-16T10:51:05;2.35;;;1.48;;
60454;SDS011;54989;53.398;6.564;2022-10-16T10:53:34;3.67;;;1.40;;
60454;SDS011;54989;53.398;6.564;2022-10-16T11:01:15;3.75;;;1.60;;
60454;SDS011;54989;53.398;6.564;2022-10-16T11:06:25;3.65;;;1.60;;
60454;SDS011;54989;53.398;6.564;2022-10-16T11:09:00;3.33;;;1.30;;
60454;SDS011;54989;53.398;6.564;2022-10-16T11:14:39;2.70;;;1.40;;
60454;SDS011;54989;53.398;6.564;2022-10-16T11:17:23;3.05;;;1.60;;
60454;SDS011;54989;53.398;6.564;2022-10-16T11:20:05;2.83;;;1.50;;
60454;SDS011;54989;53.398;6.564;2022-10-16T11:22:50;2.95;;;1.73;;
60454;SDS011;54989;53.398;6.564;2022-10-16T11:25:32;2.38;;;1.42;;
60454;SDS011;54989;53.398;6.564;2022-10-16T11:35:59;2.28;;;1.25;;
60454;SDS011;54989;53.398;6.564;2022-10-16T11:41:26;4.00;;;1.60;;
60454;SDS011;54989;53.398;6.564;2022-10-16T11:50:39;3.38;;;1.38;;
60454;SDS011;54989;53.398;6.564;2022-10-16T11:53:16;3.78;;;1.77;;
60454;SDS011;54989;53.398;6.564;2022-10-16T11:55:51;3.97;;;1.40;;
60454;SDS011;54989;53.398;6.564;2022-10-16T12:01:05;3.78;;;1.52;;
60454;SDS011;54989;53.398;6.564;2022-10-16T12:06:30;2.85;;;1.58;;
60454;SDS011;54989;53.398;6.564;2022-10-16T12:08:58;3.20;;;1.60;;
60454;SDS011;54989;53.398;6.564;2022-10-16T12:14:59;2.60;;;1.45;;
60454;SDS011;54989;53.398;6.564;2022-10-16T12:17:27;3.45;;;1.45;;
60454;SDS011;54989;53.398;6.564;2022-10-16T12:22:41;4.07;;;1.83;;
60454;SDS011;54989;53.398;6.564;2022-10-16T12:25:24;3.92;;;1.40;;
60454;SDS011;54989;53.398;6.564;2022-10-16T12:28:04;2.65;;;1.88;;
60454;SDS011;54989;53.398;6.564;2022-10-16T12:30:35;3.30;;;1.70;;
60454;SDS011;54989;53.398;6.564;2022-10-16T12:33:17;3.13;;;1.42;;
60454;SDS011;54989;53.398;6.564;2022-10-16T12:35:54;3.55;;;1.40;;
60454;SDS011;54989;53.398;6.564;2022-10-16T12:41:30;3.53;;;1.55;;
60454;SDS011;54989;53.398;6.564;2022-10-16T12:44:00;3.03;;;1.40;;
60454;SDS011;54989;53.398;6.564;2022-10-16T12:51:42;3.10;;;1.60;;
60454;SDS011;54989;53.398;6.564;2022-10-16T12:54:20;4.22;;;1.40;;
60454;SDS011;54989;53.398;6.564;2022-10-16T12:59:53;2.33;;;1.35;;
60454;SDS011;54989;53.398;6.564;2022-10-16T13:05:26;1.83;;;1.15;;
60454;SDS011;54989;53.398;6.564;2022-10-16T13:17:00;2.30;;;1.38;;
60454;SDS011;54989;53.398;6.564;2022-10-16T13:25:34;2.30;;;1.15;;
60454;SDS011;54989;53.398;6.564;2022-10-16T13:28:32;3.13;;;1.30;;
60454;SDS011;54989;53.398;6.564;2022-10-16T13:31:10;2.22;;;1.30;;
60454;SDS011;54989;53.398;6.564;2022-10-16T13:33:49;4.13;;;1.67;;
60454;SDS011;54989;53.398;6.564;2022-10-16T13:42:14;1.45;;;1.10;;
60454;SDS011;54989;53.398;6.564;2022-10-16T13:44:58;3.20;;;1.23;;
60454;SDS011;54989;53.398;6.564;2022-10-16T13:47:30;3.05;;;1.60;;
60454;SDS011;54989;53.398;6.564;2022-10-16T13:50:11;2.45;;;1.40;;
60454;SDS011;54989;53.398;6.564;2022-10-16T13:52:42;3.15;;;1.40;;
60454;SDS011;54989;53.398;6.564;2022-10-16T13:55:14;1.77;;;1.20;;
60454;SDS011;54989;53.398;6.564;2022-10-16T13:57:45;3.53;;;1.58;;
60454;SDS011;54989;53.398;6.564;2022-10-16T14:00:24;2.70;;;1.40;;
60454;SDS011;54989;53.398;6.564;2022-10-16T14:03:03;2.25;;;1.17;;
60454;SDS011;54989;53.398;6.564;2022-10-16T14:05:40;2.10;;;1.20;;
60454;SDS011;54989;53.398;6.564;2022-10-16T14:08:17;2.67;;;1.10;;
60454;SDS011;54989;53.398;6.564;2022-10-16T14:13:31;2.70;;;1.40;;
60454;SDS011;54989;53.398;6.564;2022-10-16T14:16:07;2.22;;;1.20;;
60454;SDS011;54989;53.398;6.564;2022-10-16T14:18:45;3.35;;;1.20;;
60454;SDS011;54989;53.398;6.564;2022-10-16T14:21:16;2.15;;;1.20;;
60454;SDS011;54989;53.398;6.564;2022-10-16T14:23:46;2.25;;;1.30;;
60454;SDS011;54989;53.398;6.564;2022-10-16T14:26:19;3.15;;;1.27;;
60454;SDS011;54989;53.398;6.564;2022-10-16T14:28:49;2.30;;;1.20;;
60454;SDS011;54989;53.398;6.564;2022-10-16T14:31:32;2.85;;;1.30;;
60454;SDS011;54989;53.398;6.564;2022-10-16T14:34:00;2.58;;;1.65;;
60454;SDS011;54989;53.398;6.564;2022-10-16T14:36:28;2.72;;;1.52;;
60454;SDS011;54989;53.398;6.564;2022-10-16T14:39:00;2.22;;;1.10;;
60454;SDS011;54989;53.398;6.564;2022-10-16T14:41:31;2.35;;;1.30;;
60454;SDS011;54989;53.398;6.564;2022-10-16T14:44:14;2.05;;;1.17;;
60454;SDS011;54989;53.398;6.564;2022-10-16T14:46:50;2.55;;;1.33;;
60454;SDS011;54989;53.398;6.564;2022-10-16T14:49:22;2.15;;;1.10;;
60454;SDS011;54989;53.398;6.564;2022-10-16T14:54:27;3.15;;;1.20;;
60454;SDS011;54989;53.398;6.564;2022-10-16T14:57:02;2.15;;;1.02;;
60454;SDS011;54989;53.398;6.564;2022-10-16T14:59:40;3.33;;;1.27;;
60454;SDS011;54989;53.398;6.564;2022-10-16T15:04:57;1.77;;;1.20;;
60454;SDS011;54989;53.398;6.564;2022-10-16T15:07:28;2.33;;;1.20;;
60454;SDS011;54989;53.398;6.564;2022-10-16T15:09:56;2.78;;;1.35;;
60454;SDS011;54989;53.398;6.564;2022-10-16T15:12:25;1.67;;;1.05;;
60454;SDS011;54989;53.398;6.564;2022-10-16T15:14:56;2.00;;;1.25;;
60454;SDS011;54989;53.398;6.564;2022-10-16T15:17:27;2.10;;;1.30;;
60454;SDS011;54989;53.398;6.564;2022-10-16T15:20:04;1.60;;;0.95;;
60454;SDS011;54989;53.398;6.564;2022-10-16T15:22:35;2.97;;;1.25;;
60454;SDS011;54989;53.398;6.564;2022-10-16T15:28:10;2.08;;;1.30;;
60454;SDS011;54989;53.398;6.564;2022-10-16T15:30:41;4.88;;;1.38;;
60454;SDS011;54989;53.398;6.564;2022-10-16T15:33:17;2.95;;;1.00;;
60454;SDS011;54989;53.398;6.564;2022-10-16T15:35:54;3.15;;;1.30;;
60454;SDS011;54989;53.398;6.564;2022-10-16T15:38:22;5.07;;;1.48;;
60454;SDS011;54989;53.398;6.564;2022-10-16T15:40:51;2.85;;;1.10;;
60454;SDS011;54989;53.398;6.564;2022-10-16T15:43:19;2.65;;;1.30;;
60454;SDS011;54989;53.398;6.564;2022-10-16T15:45:58;3.10;;;1.30;;
60454;SDS011;54989;53.398;6.564;2022-10-16T15:48:29;2.63;;;1.30;;
60454;SDS011;54989;53.398;6.564;2022-10-16T15:50:59;3.17;;;1.50;;
60454;SDS011;54989;53.398;6.564;2022-10-16T15:53:27;2.22;;;1.38;;
60454;SDS011;54989;53.398;6.564;2022-10-16T15:55:54;3.35;;;1.27;;
60454;SDS011;54989;53.398;6.564;2022-10-16T15:58:21;3.00;;;1.25;;
60454;SDS011;54989;53.398;6.564;2022-10-16T16:00:56;2.17;;;1.10;;
60454;SDS011;54989;53.398;6.564;2022-10-16T16:03:24;5.22;;;1.55;;
60454;SDS011;54989;53.398;6.564;2022-10-16T16:05:51;4.13;;;1.40;;
60454;SDS011;54989;53.398;6.564;2022-10-16T16:08:19;2.22;;;1.17;;
60454;SDS011;54989;53.398;6.564;2022-10-16T16:11:03;3.42;;;1.50;;
60454;SDS011;54989;53.398;6.564;2022-10-16T16:13:33;1.58;;;1.10;;
60454;SDS011;54989;53.398;6.564;2022-10-16T16:16:24;1.85;;;1.23;;
60454;SDS011;54989;53.398;6.564;2022-10-16T16:19:01;3.92;;;1.50;;
60454;SDS011;54989;53.398;6.564;2022-10-16T16:21:36;2.90;;;1.30;;
60454;SDS011;54989;53.398;6.564;2022-10-16T16:24:05;3.22;;;1.30;;
60454;SDS011;54989;53.398;6.564;2022-10-16T16:26:37;2.65;;;1.40;;
60454;SDS011;54989;53.398;6.564;2022-10-16T16:29:06;2.88;;;1.08;;
60454;SDS011;54989;53.398;6.564;2022-10-16T16:31:37;2.90;;;1.33;;
60454;SDS011;54989;53.398;6.564;2022-10-16T16:34:05;1.88;;;1.20;;
60454;SDS011;54989;53.398;6.564;2022-10-16T16:36:35;3.38;;;1.30;;
60454;SDS011;54989;53.398;6.564;2022-10-16T16:39:03;2.08;;;1.10;;
60454;SDS011;54989;53.398;6.564;2022-10-16T16:41:30;3.15;;;1.20;;
60454;SDS011;54989;53.398;6.564;2022-10-16T16:44:06;1.65;;;1.10;;
60454;SDS011;54989;53.398;6.564;2022-10-16T16:46:40;3.20;;;1.08;;
60454;SDS011;54989;53.398;6.564;2022-10-16T16:49:11;2.10;;;1.47;;
60454;SDS011;54989;53.398;6.564;2022-10-16T16:51:39;2.08;;;1.30;;
60454;SDS011;54989;53.398;6.564;2022-10-16T16:54:10;2.08;;;1.20;;
60454;SDS011;54989;53.398;6.564;2022-10-16T16:56:39;1.83;;;1.10;;
60454;SDS011;54989;53.398;6.564;2022-10-16T16:59:11;2.85;;;1.08;;
60454;SDS011;54989;53.398;6.564;2022-10-16T17:01:43;1.95;;;1.23;;
60454;SDS011;54989;53.398;6.564;2022-10-16T17:04:11;1.80;;;1.27;;
60454;SDS011;54989;53.398;6.564;2022-10-16T17:06:42;2.28;;;1.10;;
60454;SDS011;54989;53.398;6.564;2022-10-16T17:09:10;2.15;;;0.98;;
60454;SDS011;54989;53.398;6.564;2022-10-16T17:11:41;1.40;;;1.00;;
60454;SDS011;54989;53.398;6.564;2022-10-16T17:14:11;1.63;;;0.90;;
60454;SDS011;54989;53.398;6.564;2022-10-16T17:16:39;2.95;;;1.05;;
60454;SDS011;54989;53.398;6.564;2022-10-16T17:19:08;1.88;;;1.27;;
60454;SDS011;54989;53.398;6.564;2022-10-16T17:21:39;2.20;;;1.00;;
60454;SDS011;54989;53.398;6.564;2022-10-16T17:24:07;1.88;;;0.90;;